Time;durP1;ratioP1;P1;durP2;ratioP2;P2;SDS_P1;SDS_P2;PMS_P1;PMS_P2;Temp;Humidity;BMP_temperature;BMP_pressure;BME280_temperature;BME280_humidity;BME280_pressure;Samples;Min_cycle;Max_cycle;Signal;HPM_P1;HPM_P2
2022/04/06 00:01:13;;;;;;;0.20;0.20;;;;;;;8.20;100.00;99183.41;4995836;28;20041;-64
2022/04/06 00:03:38;;;;;;;0.10;0.10;;;;;;;8.23;100.00;99173.84;5013716;28;20033;-64
2022/04/06 00:06:04;;;;;;;0.22;0.22;;;;;;;8.25;100.00;99182.28;4990669;28;20304;-64
2022/04/06 00:08:29;;;;;;;0.10;0.10;;;;;;;8.28;100.00;99174.28;5009321;28;20508;-64
2022/04/06 00:10:55;;;;;;;0.10;0.10;;;;;;;8.39;100.00;99175.09;4999747;28;20053;-64
2022/04/06 00:13:20;;;;;;;0.10;0.10;;;;;;;8.39;100.00;99174.31;4988991;28;20033;-63
2022/04/06 00:15:46;;;;;;;0.20;0.20;;;;;;;8.39;100.00;99168.97;5006091;28;20029;-65
2022/04/06 00:18:11;;;;;;;0.10;0.10;;;;;;;8.46;100.00;99175.13;5009183;28;20121;-64
2022/04/06 00:20:37;;;;;;;0.13;0.13;;;;;;;8.53;100.00;99177.84;4992216;28;20112;-63
2022/04/06 00:23:02;;;;;;;0.00;0.00;;;;;;;8.59;100.00;99170.97;5005574;28;20426;-64
2022/04/06 00:25:32;;;;;;;0.75;0.45;;;;;;;8.69;100.00;99170.22;5009389;28;20034;-64
2022/04/06 00:27:58;;;;;;;0.20;0.20;;;;;;;8.67;100.00;99175.22;5008449;28;20080;-64
2022/04/06 00:30:23;;;;;;;0.10;0.10;;;;;;;8.75;100.00;99162.59;5009823;28;20452;-64
2022/04/06 00:32:49;;;;;;;0.10;0.10;;;;;;;8.93;100.00;99172.22;4994099;28;20030;-65
2022/04/06 00:35:29;;;;;;;0.10;0.10;;;;;;;9.08;100.00;99173.03;4996280;28;20445;-64
2022/04/06 00:37:56;;;;;;;0.10;0.10;;;;;;;9.44;100.00;99160.41;5007869;28;20065;-65
2022/04/06 00:40:23;;;;;;;0.40;0.40;;;;;;;9.32;100.00;99168.84;5005310;28;20034;-63
2022/04/06 00:42:49;;;;;;;0.10;0.10;;;;;;;9.22;100.00;99165.00;5008174;28;20041;-64
2022/04/06 00:45:15;;;;;;;0.08;0.08;;;;;;;9.13;100.00;99161.91;4998970;28;20076;-65
2022/04/06 00:47:42;;;;;;;0.10;0.10;;;;;;;9.39;100.00;99160.81;5002357;28;20464;-61
2022/04/06 00:50:08;;;;;;;0.10;0.10;;;;;;;9.27;100.00;99153.13;5002219;28;20563;-63
2022/04/06 00:52:36;;;;;;;0.08;0.08;;;;;;;9.12;100.00;99162.31;4979432;28;20497;-64
2022/04/06 00:55:02;;;;;;;0.17;0.17;;;;;;;9.18;100.00;99156.16;5000126;28;20497;-62
2022/04/06 00:57:28;;;;;;;0.00;0.00;;;;;;;9.59;100.00;99156.56;5000347;28;20080;-64
2022/04/06 00:59:56;;;;;;;0.10;0.10;;;;;;;9.70;100.00;99151.94;5001909;28;20084;-62
2022/04/06 01:02:22;;;;;;;0.10;0.10;;;;;;;9.41;100.00;99145.81;5007167;28;20069;-64
2022/04/06 01:04:47;;;;;;;0.30;0.30;;;;;;;9.36;100.00;99143.53;5015348;28;20745;-63
2022/04/06 01:07:13;;;;;;;0.10;0.10;;;;;;;9.55;100.00;99151.19;5009554;28;20037;-62
2022/04/06 01:09:39;;;;;;;0.10;0.10;;;;;;;9.64;100.00;99151.56;5009647;28;20034;-64
2022/04/06 01:12:05;;;;;;;0.20;0.20;;;;;;;9.72;100.00;99147.72;5009888;28;20407;-65
2022/04/06 01:14:30;;;;;;;0.10;0.10;;;;;;;9.45;100.00;99145.81;4994163;28;20037;-65
2022/04/06 01:17:04;;;;;;;0.20;0.20;;;;;;;9.82;100.00;99156.94;5009071;28;20048;-65
2022/04/06 01:19:41;;;;;;;0.55;0.55;;;;;;;9.51;100.00;99157.72;5009235;28;20048;-64
2022/04/06 01:22:08;;;;;;;0.10;0.10;;;;;;;9.76;100.00;99148.50;5005359;28;20100;-63
2022/04/06 01:24:34;;;;;;;0.03;0.03;;;;;;;9.62;100.00;99151.19;5008438;28;20052;-64
2022/04/06 01:27:01;;;;;;;0.00;0.00;;;;;;;9.57;100.00;99142.75;5007746;28;20503;-64
2022/04/06 01:29:27;;;;;;;0.20;0.20;;;;;;;9.56;100.00;99147.34;5009054;28;20041;-64
2022/04/06 01:31:53;;;;;;;0.20;0.20;;;;;;;9.58;100.00;99152.34;5004253;28;20034;-63
2022/04/06 01:34:18;;;;;;;0.10;0.10;;;;;;;9.69;100.00;99153.09;5008308;28;20121;-64
2022/04/06 01:36:44;;;;;;;0.10;0.10;;;;;;;9.87;100.00;99161.94;5004231;28;20061;-63
2022/04/06 01:39:10;;;;;;;0.10;0.10;;;;;;;9.61;100.00;99152.34;5009397;28;20041;-63
2022/04/06 01:41:37;;;;;;;0.10;0.10;;;;;;;9.84;100.00;99151.94;5009491;28;20048;-64
2022/04/06 01:44:06;;;;;;;0.10;0.10;;;;;;;9.90;100.00;99147.69;5000588;28;20045;-62
2022/04/06 01:46:36;;;;;;;0.03;0.03;;;;;;;9.77;100.00;99154.63;5007616;28;20026;-64
2022/04/06 01:54:29;;;;;;;0.10;0.10;;;;;;;9.79;100.00;99152.34;5008148;28;20467;-63
2022/04/06 01:56:55;;;;;;;0.10;0.10;;;;;;;9.81;100.00;99156.16;5008910;28;20034;-62
2022/04/06 01:59:20;;;;;;;0.10;0.10;;;;;;;9.98;100.00;99155.38;4996679;28;20061;-63
2022/04/06 02:01:52;;;;;;;0.00;0.00;;;;;;;9.74;100.00;99150.03;4991471;28;20840;-64
2022/04/06 02:04:18;;;;;;;0.10;0.10;;;;;;;9.58;100.00;99158.47;5006023;28;20042;-64
2022/04/06 02:06:43;;;;;;;0.10;0.10;;;;;;;9.72;100.00;99150.41;4993907;28;20084;-63
2022/04/06 02:09:09;;;;;;;0.10;0.10;;;;;;;9.54;100.00;99154.28;5007715;28;20038;-62
2022/04/06 02:11:36;;;;;;;0.10;0.10;;;;;;;9.50;100.00;99153.50;5009296;28;20076;-64
2022/04/06 02:14:03;;;;;;;0.10;0.10;;;;;;;9.82;100.00;99155.00;5007080;28;20477;-62
2022/04/06 02:16:28;;;;;;;0.10;0.10;;;;;;;9.72;100.00;99146.94;5006106;28;20401;-62
2022/04/06 02:18:54;;;;;;;0.20;0.20;;;;;;;9.67;100.00;99147.34;5008636;28;20034;-63
2022/04/06 02:21:19;;;;;;;0.10;0.10;;;;;;;9.70;100.00;99146.56;5006399;28;20416;-62
2022/04/06 02:23:45;;;;;;;0.20;0.20;;;;;;;9.57;100.00;99145.44;4993589;28;20049;-64
2022/04/06 02:26:10;;;;;;;0.17;0.17;;;;;;;9.71;100.00;99140.06;4993546;28;20044;-62
2022/04/06 02:28:36;;;;;;;0.10;0.10;;;;;;;9.81;100.00;99150.78;4993060;28;20034;-63
2022/04/06 02:31:01;;;;;;;0.10;0.10;;;;;;;9.82;100.00;99138.09;4983182;28;20026;-63
2022/04/06 02:33:27;;;;;;;0.10;0.10;;;;;;;9.69;100.00;99147.72;5004413;28;20069;-64
2022/04/06 02:35:52;;;;;;;0.10;0.10;;;;;;;9.82;100.00;99135.41;5011826;28;20048;-61
2022/04/06 02:38:18;;;;;;;0.10;0.10;;;;;;;9.62;100.00;99137.00;4999004;28;20042;-63
2022/04/06 02:40:43;;;;;;;0.10;0.10;;;;;;;9.66;100.00;99137.72;5011398;28;20025;-63
2022/04/06 02:43:09;;;;;;;0.15;0.15;;;;;;;9.46;100.00;99144.69;5012264;28;20520;-61
2022/04/06 02:45:34;;;;;;;0.10;0.10;;;;;;;9.38;100.00;99132.38;5011473;28;20034;-63
2022/04/06 02:47:59;;;;;;;0.10;0.10;;;;;;;9.51;100.00;99128.16;5011717;28;20400;-63
2022/04/06 02:50:25;;;;;;;0.52;0.40;;;;;;;9.58;100.00;99138.91;5012494;28;20041;-63
2022/04/06 02:52:51;;;;;;;0.10;0.10;;;;;;;9.54;100.00;99130.84;4998188;28;20512;-61
2022/04/06 02:55:16;;;;;;;0.03;0.03;;;;;;;9.49;100.00;99127.78;5005871;28;20042;-63
2022/04/06 02:57:42;;;;;;;0.10;0.10;;;;;;;9.60;100.00;99128.56;5002458;28;20029;-63
2022/04/06 03:00:08;;;;;;;0.10;0.10;;;;;;;9.64;100.00;99126.63;4997054;28;20060;-62
2022/04/06 03:02:34;;;;;;;0.10;0.10;;;;;;;9.53;100.00;99123.94;4998366;28;20088;-61
2022/04/06 03:05:00;;;;;;;0.10;0.10;;;;;;;9.55;100.00;99129.69;5020139;28;20469;-64
2022/04/06 03:07:25;;;;;;;0.10;0.10;;;;;;;9.36;100.00;99126.63;4997570;28;20030;-64
2022/04/06 03:09:51;;;;;;;0.22;0.22;;;;;;;9.37;100.00;99114.75;5010847;28;20080;-63
2022/04/06 03:12:16;;;;;;;0.52;0.52;;;;;;;9.42;100.00;99123.19;5007062;28;20033;-63
2022/04/06 03:14:42;;;;;;;0.10;0.10;;;;;;;9.47;100.00;99117.41;5010756;28;20093;-64
2022/04/06 03:17:07;;;;;;;0.15;0.15;;;;;;;9.51;100.00;99122.78;5001689;28;20382;-63
2022/04/06 03:19:33;;;;;;;0.52;0.52;;;;;;;9.55;100.00;99123.56;5008146;28;20433;-64
2022/04/06 03:21:58;;;;;;;0.10;0.10;;;;;;;9.50;100.00;99118.56;5011373;28;20045;-64
2022/04/06 03:24:24;;;;;;;0.10;0.10;;;;;;;9.45;100.00;99127.00;5008091;28;20123;-64
2022/04/06 03:26:49;;;;;;;0.10;0.10;;;;;;;9.35;100.00;99112.44;5009765;28;20041;-64
2022/04/06 03:29:15;;;;;;;0.10;0.10;;;;;;;9.57;100.00;99116.66;5011139;28;20065;-64
2022/04/06 03:31:40;;;;;;;0.10;0.10;;;;;;;9.41;100.00;99120.88;5005399;28;20095;-64
2022/04/06 03:34:05;;;;;;;0.10;0.10;;;;;;;9.44;100.00;99120.88;5004482;28;20042;-63
2022/04/06 03:36:31;;;;;;;0.10;0.10;;;;;;;9.51;100.00;99115.50;5002394;28;20064;-63
2022/04/06 03:38:56;;;;;;;0.10;0.10;;;;;;;9.44;100.00;99114.72;4984621;28;20488;-64
2022/04/06 03:41:22;;;;;;;0.10;0.10;;;;;;;9.82;100.00;99108.53;5009642;28;20052;-63
2022/04/06 03:43:47;;;;;;;0.10;0.10;;;;;;;9.57;100.00;99108.59;5010193;28;20096;-64
2022/04/06 03:46:14;;;;;;;0.43;0.43;;;;;;;9.49;100.00;99107.06;5007445;28;20065;-64
2022/04/06 03:48:40;;;;;;;1.45;0.80;;;;;;;9.50;100.00;99107.81;5004658;28;20132;-64
2022/04/06 03:51:05;;;;;;;0.15;0.15;;;;;;;9.58;100.00;99093.22;5008353;28;20156;-64
2022/04/06 03:53:30;;;;;;;0.10;0.10;;;;;;;9.52;100.00;99102.84;4991172;28;20068;-62
2022/04/06 03:55:56;;;;;;;0.22;0.22;;;;;;;9.61;100.00;99114.72;5007145;28;20052;-64
2022/04/06 03:58:21;;;;;;;0.10;0.10;;;;;;;9.64;100.00;99108.56;5006413;28;20116;-64
2022/04/06 04:00:47;;;;;;;0.50;0.38;;;;;;;9.59;100.00;99105.50;5001772;28;20050;-64
2022/04/06 04:03:12;;;;;;;0.10;0.10;;;;;;;9.57;100.00;99097.84;5009496;28;20041;-64
2022/04/06 04:05:38;;;;;;;0.10;0.10;;;;;;;9.49;100.00;99098.22;4978712;28;20045;-63
2022/04/06 04:08:03;;;;;;;0.20;0.20;;;;;;;9.48;100.00;99099.38;5007901;28;20037;-64
2022/04/06 04:10:29;;;;;;;0.00;0.00;;;;;;;9.68;100.00;99085.13;5004314;28;20022;-64
2022/04/06 04:12:54;;;;;;;0.17;0.17;;;;;;;9.75;100.00;99093.22;5007670;28;20026;-64
2022/04/06 04:15:20;;;;;;;0.20;0.20;;;;;;;9.75;100.00;99097.81;5004635;28;20809;-64
2022/04/06 04:17:45;;;;;;;0.20;0.20;;;;;;;9.60;100.00;99097.06;5010192;28;20116;-63
2022/04/06 04:20:11;;;;;;;0.17;0.17;;;;;;;9.61;100.00;99087.84;4992102;28;20040;-62
2022/04/06 04:22:36;;;;;;;0.10;0.10;;;;;;;9.62;100.00;99099.38;5006254;28;20481;-63
2022/04/06 04:25:02;;;;;;;0.25;0.25;;;;;;;9.65;100.00;99095.91;5002945;28;20544;-61
2022/04/06 04:27:29;;;;;;;0.10;0.10;;;;;;;9.51;100.00;99088.63;5007273;28;20029;-63
2022/04/06 04:29:55;;;;;;;0.10;0.10;;;;;;;9.49;100.00;99090.16;4996158;28;20583;-64
2022/04/06 04:32:22;;;;;;;1.30;1.25;;;;;;;9.57;100.00;99083.63;5004914;28;20055;-63
2022/04/06 04:34:47;;;;;;;0.10;0.10;;;;;;;9.80;100.00;99079.38;5006716;28;20544;-63
2022/04/06 04:37:13;;;;;;;0.10;0.10;;;;;;;9.77;100.00;99076.69;5002973;28;20109;-64
2022/04/06 04:39:38;;;;;;;0.13;0.13;;;;;;;9.68;100.00;99070.94;5005728;28;20497;-63
2022/04/06 04:42:04;;;;;;;0.13;0.13;;;;;;;9.53;100.00;99078.25;5002645;28;20029;-62
2022/04/06 04:44:30;;;;;;;0.28;0.28;;;;;;;9.57;100.00;99078.25;5004398;28;20407;-64
2022/04/06 04:46:55;;;;;;;0.10;0.10;;;;;;;9.64;100.00;99083.63;4988973;28;20041;-64
2022/04/06 04:49:21;;;;;;;0.10;0.10;;;;;;;9.81;100.00;99085.50;5007464;28;20542;-63
2022/04/06 04:51:46;;;;;;;0.55;0.55;;;;;;;9.76;100.00;99083.19;5006711;28;20116;-62
2022/04/06 04:54:12;;;;;;;0.75;0.75;;;;;;;9.72;100.00;99082.44;4999466;28;20041;-62
2022/04/06 04:56:40;;;;;;;0.30;0.30;;;;;;;9.63;100.00;99085.53;5005101;28;20032;-63
2022/04/06 04:59:06;;;;;;;0.10;0.10;;;;;;;9.49;100.00;99092.84;4999723;28;20402;-62
2022/04/06 05:01:31;;;;;;;0.17;0.17;;;;;;;9.73;100.00;99092.06;5000429;28;20064;-63
2022/04/06 05:03:57;;;;;;;0.45;0.45;;;;;;;9.71;100.00;99078.22;5004278;28;20585;-64
2022/04/06 05:06:22;;;;;;;0.20;0.20;;;;;;;9.65;100.00;99088.63;4967635;28;1173821;-63
2022/04/06 05:08:48;;;;;;;0.22;0.22;;;;;;;9.64;100.00;99080.94;5009111;28;20042;-64
2022/04/06 05:11:14;;;;;;;0.65;0.65;;;;;;;9.54;100.00;99073.66;5006471;28;20045;-63
2022/04/06 05:13:39;;;;;;;0.35;0.35;;;;;;;9.62;100.00;99075.94;4992166;28;20042;-63
2022/04/06 05:16:05;;;;;;;0.10;0.10;;;;;;;9.64;100.00;99083.63;5009450;28;20062;-64
2022/04/06 05:18:30;;;;;;;1.02;0.32;;;;;;;9.62;100.00;99067.88;5006601;28;20465;-64
2022/04/06 05:20:57;;;;;;;0.45;0.45;;;;;;;9.69;100.00;99083.22;4989638;28;20026;-64
2022/04/06 05:23:23;;;;;;;6.05;0.55;;;;;;;10.03;100.00;99079.69;5009554;28;20108;-63
2022/04/06 05:25:48;;;;;;;0.15;0.15;;;;;;;9.91;100.00;99079.34;5009418;28;20109;-64
2022/04/06 05:28:15;;;;;;;0.30;0.30;;;;;;;9.86;100.00;99082.41;4998365;28;20480;-63
2022/04/06 05:30:41;;;;;;;0.20;0.20;;;;;;;9.81;100.00;99080.13;5001724;28;20038;-64
2022/04/06 05:33:07;;;;;;;1.20;1.10;;;;;;;9.76;100.00;99067.84;4998008;28;20096;-63
2022/04/06 05:35:33;;;;;;;0.20;0.20;;;;;;;9.90;100.00;99067.03;5009551;28;20064;-64
2022/04/06 05:37:58;;;;;;;0.52;0.52;;;;;;;9.82;100.00;99070.91;5022958;28;20044;-64
2022/04/06 05:40:25;;;;;;;0.20;0.20;;;;;;;9.81;100.00;99072.06;5013384;28;20159;-64
2022/04/06 05:42:50;;;;;;;0.65;0.65;;;;;;;9.82;100.00;99069.00;5008485;28;20539;-64
2022/04/06 05:45:16;;;;;;;0.10;0.10;;;;;;;9.93;100.00;99069.72;5006975;28;20318;-62
2022/04/06 05:47:42;;;;;;;1.55;0.57;;;;;;;9.88;100.00;99064.75;5010051;28;20032;-64
2022/04/06 05:50:09;;;;;;;0.10;0.10;;;;;;;9.79;100.00;99071.69;5008981;28;20132;-63
2022/04/06 05:52:34;;;;;;;0.13;0.13;;;;;;;9.89;100.00;99070.91;5025545;28;20046;-64
2022/04/06 05:55:01;;;;;;;0.20;0.20;;;;;;;9.83;100.00;99072.44;5008843;28;20044;-63
2022/04/06 05:57:26;;;;;;;0.80;0.80;;;;;;;9.79;100.00;99072.44;5008022;28;20456;-64
2022/04/06 05:59:52;;;;;;;0.40;0.40;;;;;;;10.12;100.00;99073.16;5008731;28;20049;-64
2022/04/06 06:02:19;;;;;;;0.40;0.40;;;;;;;10.03;100.00;99066.22;5002741;28;20526;-64
2022/04/06 06:04:44;;;;;;;0.10;0.10;;;;;;;9.90;100.00;99067.03;5011461;28;20092;-63
2022/04/06 06:07:10;;;;;;;0.10;0.10;;;;;;;9.91;100.00;99065.91;5010808;28;20493;-63
2022/04/06 06:09:36;;;;;;;2.00;0.82;;;;;;;10.02;100.00;99070.09;5025070;28;20293;-65
2022/04/06 06:12:04;;;;;;;0.10;0.10;;;;;;;9.97;100.00;99069.69;5014609;28;20092;-63
2022/04/06 06:14:30;;;;;;;0.20;0.20;;;;;;;9.90;100.00;99073.19;5012263;28;20117;-63
2022/04/06 06:16:58;;;;;;;0.57;0.57;;;;;;;9.91;100.00;99058.59;5007083;28;20065;-65
2022/04/06 06:19:24;;;;;;;0.22;0.22;;;;;;;9.85;100.00;99059.38;5011623;28;20041;-63
2022/04/06 06:21:49;;;;;;;0.68;0.68;;;;;;;9.83;100.00;99067.81;5005455;28;20034;-64
2022/04/06 06:24:14;;;;;;;0.10;0.10;;;;;;;9.86;100.00;99063.59;5005313;28;20069;-64
2022/04/06 06:26:44;;;;;;;0.10;0.10;;;;;;;9.85;100.00;99064.75;5011778;28;20061;-64
2022/04/06 06:29:09;;;;;;;0.10;0.10;;;;;;;9.89;100.00;99063.56;5008598;28;20057;-64
2022/04/06 06:31:35;;;;;;;0.45;0.45;;;;;;;10.02;100.00;99061.25;5014237;28;20038;-63
2022/04/06 06:34:01;;;;;;;0.25;0.25;;;;;;;10.11;100.00;99056.25;5009223;28;20040;-64
2022/04/06 06:36:27;;;;;;;0.08;0.08;;;;;;;10.38;100.00;99072.63;5008347;28;20415;-63
2022/04/06 06:38:54;;;;;;;0.98;0.98;;;;;;;10.03;100.00;99052.78;5009492;28;20374;-63
2022/04/06 06:41:21;;;;;;;0.10;0.10;;;;;;;9.98;100.00;99049.72;5002857;28;20050;-64
2022/04/06 06:43:48;;;;;;;0.08;0.08;;;;;;;9.85;100.00;99048.63;5008709;28;20124;-64
2022/04/06 06:46:18;;;;;;;0.30;0.30;;;;;;;9.83;100.00;99043.63;5007886;28;20045;-64
2022/04/06 06:48:44;;;;;;;0.43;0.43;;;;;;;10.03;100.00;99044.72;5007149;28;20049;-64
2022/04/06 06:51:10;;;;;;;0.32;0.32;;;;;;;10.12;100.00;99035.50;5004272;28;20125;-64
2022/04/06 06:53:35;;;;;;;0.10;0.10;;;;;;;10.21;100.00;99031.22;5009522;28;20130;-64
2022/04/06 06:56:01;;;;;;;0.75;0.68;;;;;;;10.29;100.00;99030.03;5010048;28;20026;-64
2022/04/06 06:58:26;;;;;;;0.10;0.10;;;;;;;10.17;100.00;99032.38;5006193;28;20132;-64
2022/04/06 07:00:52;;;;;;;0.20;0.20;;;;;;;10.39;100.00;99033.81;5013530;28;20049;-64
2022/04/06 07:03:17;;;;;;;0.20;0.20;;;;;;;10.21;100.00;99028.53;5014068;28;20389;-64
2022/04/06 07:05:45;;;;;;;0.65;0.65;;;;;;;10.14;100.00;99031.25;5005936;28;20061;-63
2022/04/06 07:08:10;;;;;;;0.20;0.20;;;;;;;10.19;100.00;99030.06;5005431;28;20391;-64
2022/04/06 07:10:36;;;;;;;0.10;0.10;;;;;;;10.44;100.00;99041.47;5009906;28;20030;-64
2022/04/06 07:13:01;;;;;;;0.25;0.25;;;;;;;10.33;100.00;99036.16;5009587;28;20076;-64
2022/04/06 07:15:27;;;;;;;0.20;0.20;;;;;;;10.15;100.00;99046.22;5015206;28;20018;-63
2022/04/06 07:17:57;;;;;;;0.32;0.32;;;;;;;10.37;100.00;99039.59;5008237;28;20041;-64
2022/04/06 07:20:25;;;;;;;0.47;0.47;;;;;;;10.47;100.00;99030.69;5009912;28;20041;-64
2022/04/06 07:22:51;;;;;;;0.25;0.25;;;;;;;10.41;100.00;99037.66;5009057;28;20029;-64
2022/04/06 07:25:16;;;;;;;0.22;0.22;;;;;;;10.19;100.00;99030.06;5012275;28;20095;-65
2022/04/06 07:27:42;;;;;;;0.50;0.30;;;;;;;10.33;100.00;99030.78;5008167;28;20492;-64
2022/04/06 07:30:08;;;;;;;0.20;0.20;;;;;;;10.25;100.00;99031.19;5008945;28;20042;-65
2022/04/06 07:32:35;;;;;;;0.25;0.25;;;;;;;10.47;100.00;99028.00;5004545;28;20045;-63
2022/04/06 07:35:02;;;;;;;0.20;0.20;;;;;;;10.35;100.00;99041.91;5004595;28;20413;-64
2022/04/06 07:37:38;;;;;;;1.00;0.55;;;;;;;10.37;100.00;99030.75;5004014;28;20230;-64
2022/04/06 07:40:05;;;;;;;0.38;0.38;;;;;;;10.40;100.00;99022.66;5002121;28;20041;-64
2022/04/06 07:42:31;;;;;;;0.10;0.10;;;;;;;10.42;100.00;99022.25;5009228;28;20535;-65
2022/04/06 07:44:57;;;;;;;0.20;0.20;;;;;;;10.43;100.00;99013.78;5010176;28;20034;-65
2022/04/06 07:47:30;;;;;;;0.95;0.88;;;;;;;10.41;100.00;99016.13;5003988;28;20060;-64
2022/04/06 07:49:57;;;;;;;0.10;0.10;;;;;;;10.48;100.00;99008.00;5008207;28;20037;-64
2022/04/06 07:52:23;;;;;;;0.13;0.13;;;;;;;10.56;100.00;99014.88;5006225;28;20045;-63
2022/04/06 07:54:48;;;;;;;0.30;0.30;;;;;;;10.40;100.00;99022.66;4997525;28;20034;-63
2022/04/06 07:57:14;;;;;;;0.95;0.95;;;;;;;10.63;100.00;99012.13;5003769;28;20511;-64
2022/04/06 07:59:39;;;;;;;0.03;0.03;;;;;;;10.59;100.00;99014.06;5007136;28;20118;-63
2022/04/06 08:02:05;;;;;;;0.17;0.17;;;;;;;10.71;100.00;99023.63;5004651;28;20124;-63
2022/04/06 08:04:30;;;;;;;0.38;0.38;;;;;;;10.52;100.00;99006.06;4999194;28;20042;-63
2022/04/06 08:06:56;;;;;;;0.28;0.20;;;;;;;10.68;100.00;99025.16;4999387;28;20465;-64
2022/04/06 08:09:21;;;;;;;0.73;0.45;;;;;;;10.57;100.00;99007.56;5007492;28;20038;-63
2022/04/06 08:11:47;;;;;;;1.38;0.90;;;;;;;10.52;100.00;99010.66;5005644;28;20033;-64
2022/04/06 08:14:12;;;;;;;1.08;0.60;;;;;;;10.46;100.00;99018.41;5003796;28;20086;-64
2022/04/06 08:16:38;;;;;;;0.20;0.20;;;;;;;10.51;100.00;99011.84;5009391;28;20401;-64
2022/04/06 08:19:03;;;;;;;0.15;0.15;;;;;;;10.63;100.00;99009.44;5007703;28;20137;-65
2022/04/06 08:21:29;;;;;;;0.32;0.32;;;;;;;10.89;100.00;99014.25;5007514;28;20481;-63
2022/04/06 08:23:54;;;;;;;0.55;0.55;;;;;;;10.61;100.00;99009.06;5001912;28;20037;-63
2022/04/06 08:26:20;;;;;;;0.20;0.20;;;;;;;10.50;100.00;99023.75;5006215;28;20037;-63
2022/04/06 08:28:47;;;;;;;0.50;0.50;;;;;;;10.65;100.00;99020.56;5014947;28;20045;-62
2022/04/06 08:31:12;;;;;;;0.32;0.32;;;;;;;10.70;100.00;99005.94;5008517;28;20033;-63
2022/04/06 08:33:38;;;;;;;0.10;0.10;;;;;;;10.86;100.00;99015.03;5011322;28;20034;-64
2022/04/06 08:36:06;;;;;;;0.40;0.40;;;;;;;10.67;100.00;99006.72;5019626;28;20488;-63
2022/04/06 08:38:32;;;;;;;0.30;0.30;;;;;;;10.55;100.00;99018.72;5015938;28;20037;-62
2022/04/06 08:40:57;;;;;;;0.38;0.38;;;;;;;10.55;100.00;99013.34;5022715;28;20060;-64
2022/04/06 08:43:23;;;;;;;0.20;0.20;;;;;;;10.51;100.00;99003.78;5012850;28;20500;-64
2022/04/06 08:45:50;;;;;;;0.75;0.28;;;;;;;10.71;100.00;99012.84;5013357;28;20061;-63
2022/04/06 08:48:18;;;;;;;0.30;0.30;;;;;;;10.71;100.00;99005.53;5013529;28;20122;-64
2022/04/06 08:50:45;;;;;;;0.20;0.20;;;;;;;10.74;100.00;99010.13;5009418;28;20040;-65
2022/04/06 08:53:11;;;;;;;0.73;0.73;;;;;;;10.88;100.00;99004.63;5000189;28;20516;-62
2022/04/06 08:55:36;;;;;;;0.28;0.28;;;;;;;10.83;100.00;99005.06;4999858;28;20034;-62
2022/04/06 08:58:03;;;;;;;0.50;0.50;;;;;;;10.61;100.00;98997.53;4996729;28;20038;-64
2022/04/06 09:00:29;;;;;;;0.20;0.20;;;;;;;10.78;100.00;99002.78;4998833;28;20424;-62
2022/04/06 09:02:54;;;;;;;0.90;0.57;;;;;;;10.66;100.00;99000.59;5000980;28;20042;-62
2022/04/06 09:05:21;;;;;;;1.15;1.10;;;;;;;10.70;100.00;99006.69;4998640;28;20049;-62
2022/04/06 09:07:53;;;;;;;0.60;0.60;;;;;;;10.86;100.00;99004.25;4998031;28;20481;-63
2022/04/06 09:10:38;;;;;;;0.90;0.90;;;;;;;11.07;100.00;99005.25;5004254;28;20037;-63
2022/04/06 09:13:09;;;;;;;0.63;0.63;;;;;;;10.87;100.00;99003.13;5005074;28;20041;-62
2022/04/06 09:15:35;;;;;;;0.70;0.63;;;;;;;10.80;100.00;99008.53;5005539;28;20040;-63
2022/04/06 09:18:01;;;;;;;1.95;0.82;;;;;;;10.61;100.00;99001.00;4989612;28;20034;-62
2022/04/06 09:20:28;;;;;;;0.25;0.20;;;;;;;10.63;100.00;99001.38;4995955;28;20061;-63
2022/04/06 09:22:54;;;;;;;0.30;0.30;;;;;;;10.66;100.00;99010.59;5015776;28;20060;-62
2022/04/06 09:25:20;;;;;;;0.60;0.60;;;;;;;10.64;100.00;99002.13;5001975;28;20041;-62
2022/04/06 09:27:45;;;;;;;0.15;0.15;;;;;;;10.75;100.00;99006.28;5005102;28;20057;-63
2022/04/06 09:30:11;;;;;;;0.10;0.10;;;;;;;10.79;100.00;99014.31;4996800;28;20489;-62
2022/04/06 09:32:40;;;;;;;0.63;0.63;;;;;;;10.80;100.00;99005.84;5006391;28;20049;-63
2022/04/06 09:35:26;;;;;;;0.52;0.52;;;;;;;10.94;100.00;99023.81;4999297;28;20042;-63
2022/04/06 09:38:23;;;;;;;0.15;0.15;;;;;;;11.01;100.00;99006.84;4994934;28;20046;-64
2022/04/06 09:40:51;;;;;;;0.30;0.30;;;;;;;11.09;100.00;99005.63;4997909;28;20037;-64
2022/04/06 09:43:25;;;;;;;0.28;0.20;;;;;;;11.00;100.00;98998.00;5005712;28;20045;-64
2022/04/06 09:48:52;;;;;;;2.17;1.58;;;;;;;10.81;100.00;99007.41;5000220;28;20434;-63
2022/04/06 09:51:19;;;;;;;0.35;0.30;;;;;;;10.96;100.00;99007.25;4959474;28;20030;-65
2022/04/06 09:53:51;;;;;;;0.10;0.10;;;;;;;11.07;100.00;99008.69;5016043;28;20042;-63
2022/04/06 09:56:17;;;;;;;0.10;0.10;;;;;;;11.28;100.00;99010.44;5004976;28;20381;-63
2022/04/06 09:58:47;;;;;;;0.10;0.10;;;;;;;11.28;100.00;99003.16;5004011;28;20045;-63
2022/04/06 10:01:14;;;;;;;0.10;0.10;;;;;;;11.29;99.76;99009.28;4999136;28;20042;-64
2022/04/06 10:03:43;;;;;;;0.10;0.10;;;;;;;11.33;99.34;98999.22;4994120;28;20040;-63
2022/04/06 10:06:10;;;;;;;0.10;0.10;;;;;;;11.29;100.00;99001.97;4990437;28;20517;-62
2022/04/06 10:08:38;;;;;;;0.20;0.20;;;;;;;11.05;100.00;99021.06;4995063;28;20037;-63
2022/04/06 10:11:04;;;;;;;0.22;0.22;;;;;;;10.97;100.00;99003.41;4999743;28;20041;-63
2022/04/06 10:13:30;;;;;;;0.10;0.10;;;;;;;10.87;100.00;99002.34;5001499;28;20594;-63
2022/04/06 10:15:57;;;;;;;0.28;0.28;;;;;;;11.06;100.00;98995.63;5006992;28;20053;-63
2022/04/06 10:18:25;;;;;;;0.40;0.40;;;;;;;10.80;100.00;98995.06;5003999;28;20018;-65
2022/04/06 10:21:15;;;;;;;0.20;0.20;;;;;;;10.91;100.00;99000.38;5004712;28;20041;-65
2022/04/06 10:24:00;;;;;;;0.17;0.17;;;;;;;10.75;100.00;98992.81;4992060;28;20034;-64
2022/04/06 10:26:39;;;;;;;0.17;0.17;;;;;;;10.67;100.00;98994.03;5012170;28;20650;-64
2022/04/06 10:29:05;;;;;;;0.10;0.10;;;;;;;10.68;100.00;98998.25;5008146;28;20088;-64
2022/04/06 10:31:31;;;;;;;0.10;0.10;;;;;;;10.64;100.00;98992.16;5005358;28;20056;-64
2022/04/06 10:34:19;;;;;;;0.10;0.10;;;;;;;10.92;100.00;98995.78;5006071;28;20023;-63
2022/04/06 10:37:07;;;;;;;0.22;0.22;;;;;;;11.12;100.00;98999.44;4998595;28;20033;-63
2022/04/06 10:39:54;;;;;;;0.05;0.05;;;;;;;10.99;100.00;98982.25;5000074;28;20030;-64
2022/04/06 10:42:31;;;;;;;0.30;0.30;;;;;;;10.99;100.00;98984.94;4997313;28;20117;-64
2022/04/06 10:44:57;;;;;;;0.22;0.22;;;;;;;11.09;100.00;98992.16;4998000;28;20030;-64
2022/04/06 10:47:23;;;;;;;0.20;0.20;;;;;;;11.09;100.00;98994.84;5003806;28;20040;-62
2022/04/06 10:50:22;;;;;;;0.57;0.57;;;;;;;10.78;100.00;98978.56;5006512;28;20114;-63
2022/04/06 10:52:48;;;;;;;0.50;0.50;;;;;;;10.81;100.00;98979.69;4959849;28;20409;-64
2022/04/06 10:55:21;;;;;;;1.08;0.43;;;;;;;10.82;100.00;98973.91;4977990;28;20037;-65
2022/04/06 10:57:57;;;;;;;0.10;0.10;;;;;;;10.83;100.00;98975.44;5002777;28;20489;-63
2022/04/06 11:00:22;;;;;;;0.55;0.55;;;;;;;10.81;100.00;98980.47;5006690;28;20041;-65
2022/04/06 11:02:52;;;;;;;0.28;0.28;;;;;;;10.75;100.00;98978.59;5009943;28;20355;-64
2022/04/06 11:05:56;;;;;;;0.10;0.10;;;;;;;10.89;100.00;98970.41;5008550;28;20834;-64
2022/04/06 11:11:45;;;;;;;0.30;0.30;;;;;;;11.05;100.00;98967.19;4992277;28;20658;-64
2022/04/06 11:14:12;;;;;;;0.75;0.75;;;;;;;11.17;100.00;98964.00;5002186;28;20034;-64
2022/04/06 11:16:43;;;;;;;0.17;0.17;;;;;;;10.92;100.00;98953.44;5010317;28;20066;-64
2022/04/06 11:19:08;;;;;;;0.10;0.10;;;;;;;11.01;100.00;98956.44;5005710;28;20033;-65
2022/04/06 11:21:34;;;;;;;0.20;0.20;;;;;;;11.16;100.00;98962.44;4999422;28;20030;-65
2022/04/06 11:23:59;;;;;;;0.10;0.10;;;;;;;10.99;100.00;98958.78;5010541;28;20463;-64
2022/04/06 11:26:26;;;;;;;0.10;0.10;;;;;;;10.86;100.00;98961.19;4983849;28;20034;-64
2022/04/06 11:28:57;;;;;;;0.30;0.30;;;;;;;11.02;100.00;98947.19;4992694;28;20041;-63
2022/04/06 11:31:23;;;;;;;0.10;0.10;;;;;;;11.09;100.00;98951.75;4961281;28;20041;-61
2022/04/06 11:33:49;;;;;;;0.00;0.00;;;;;;;10.97;100.00;98960.31;4985357;28;20062;-59
2022/04/06 11:36:19;;;;;;;0.20;0.20;;;;;;;11.13;100.00;98960.56;5007994;28;20049;-61
2022/04/06 11:38:51;;;;;;;0.10;0.10;;;;;;;11.29;100.00;98958.84;4994755;28;20072;-61
2022/04/06 11:41:20;;;;;;;0.10;0.10;;;;;;;11.24;100.00;98953.91;5001396;28;20470;-63